sensor_id;sensor_type;location;lat;lon;timestamp;temperature;humidity
14409;DHT22;7289;50.706;4.992;2023-06-26T00:01:29;22.80;96.30
14409;DHT22;7289;50.706;4.992;2023-06-26T00:03:59;22.80;96.20
14409;DHT22;7289;50.706;4.992;2023-06-26T00:06:28;22.90;96.00
14409;DHT22;7289;50.706;4.992;2023-06-26T00:08:57;23.00;96.10
14409;DHT22;7289;50.706;4.992;2023-06-26T00:11:26;23.00;96.20
14409;DHT22;7289;50.706;4.992;2023-06-26T00:13:59;23.00;96.20
14409;DHT22;7289;50.706;4.992;2023-06-26T00:16:28;23.00;96.30
14409;DHT22;7289;50.706;4.992;2023-06-26T00:18:58;23.00;96.20
14409;DHT22;7289;50.706;4.992;2023-06-26T00:21:26;22.90;96.10
14409;DHT22;7289;50.706;4.992;2023-06-26T00:23:55;22.90;96.30
14409;DHT22;7289;50.706;4.992;2023-06-26T00:26:23;22.90;96.30
14409;DHT22;7289;50.706;4.992;2023-06-26T00:28:52;22.80;96.40
14409;DHT22;7289;50.706;4.992;2023-06-26T00:31:21;22.80;96.50
14409;DHT22;7289;50.706;4.992;2023-06-26T00:33:50;22.80;96.60
14409;DHT22;7289;50.706;4.992;2023-06-26T00:36:18;22.70;96.70
14409;DHT22;7289;50.706;4.992;2023-06-26T00:38:46;22.70;96.90
14409;DHT22;7289;50.706;4.992;2023-06-26T00:41:15;22.60;97.00
14409;DHT22;7289;50.706;4.992;2023-06-26T00:43:44;22.60;97.20
14409;DHT22;7289;50.706;4.992;2023-06-26T00:46:13;22.50;97.20
14409;DHT22;7289;50.706;4.992;2023-06-26T00:48:44;22.40;97.20
14409;DHT22;7289;50.706;4.992;2023-06-26T00:51:13;22.40;96.70
14409;DHT22;7289;50.706;4.992;2023-06-26T00:53:42;22.40;96.60
14409;DHT22;7289;50.706;4.992;2023-06-26T00:56:11;22.40;96.50
14409;DHT22;7289;50.706;4.992;2023-06-26T00:58:40;22.40;96.40
14409;DHT22;7289;50.706;4.992;2023-06-26T01:01:08;22.30;96.30
14409;DHT22;7289;50.706;4.992;2023-06-26T01:03:44;22.30;96.30
14409;DHT22;7289;50.706;4.992;2023-06-26T01:06:14;22.20;96.20
14409;DHT22;7289;50.706;4.992;2023-06-26T01:08:43;22.20;96.50
14409;DHT22;7289;50.706;4.992;2023-06-26T01:11:13;22.10;96.30
14409;DHT22;7289;50.706;4.992;2023-06-26T01:13:42;22.00;96.40
14409;DHT22;7289;50.706;4.992;2023-06-26T01:16:12;22.00;96.40
14409;DHT22;7289;50.706;4.992;2023-06-26T01:18:41;22.00;96.20
14409;DHT22;7289;50.706;4.992;2023-06-26T01:21:14;21.90;96.40
14409;DHT22;7289;50.706;4.992;2023-06-26T01:23:56;21.90;96.10
14409;DHT22;7289;50.706;4.992;2023-06-26T01:26:29;21.90;96.10
14409;DHT22;7289;50.706;4.992;2023-06-26T01:28:59;21.80;96.20
14409;DHT22;7289;50.706;4.992;2023-06-26T01:31:29;21.70;96.50
14409;DHT22;7289;50.706;4.992;2023-06-26T01:33:59;21.70;96.60
14409;DHT22;7289;50.706;4.992;2023-06-26T01:36:28;21.70;96.80
14409;DHT22;7289;50.706;4.992;2023-06-26T01:38:57;21.60;97.00
14409;DHT22;7289;50.706;4.992;2023-06-26T01:41:26;21.60;96.70
14409;DHT22;7289;50.706;4.992;2023-06-26T01:44:11;21.60;96.70
14409;DHT22;7289;50.706;4.992;2023-06-26T01:46:49;21.50;96.70
14409;DHT22;7289;50.706;4.992;2023-06-26T01:49:25;21.40;96.40
14409;DHT22;7289;50.706;4.992;2023-06-26T01:52:03;21.30;96.10
14409;DHT22;7289;50.706;4.992;2023-06-26T01:54:41;21.30;96.00
14409;DHT22;7289;50.706;4.992;2023-06-26T01:57:13;21.20;96.00
14409;DHT22;7289;50.706;4.992;2023-06-26T01:59:42;21.20;96.10
14409;DHT22;7289;50.706;4.992;2023-06-26T02:02:11;21.10;96.10
14409;DHT22;7289;50.706;4.992;2023-06-26T02:04:39;21.10;96.20
14409;DHT22;7289;50.706;4.992;2023-06-26T02:07:08;21.10;96.50
14409;DHT22;7289;50.706;4.992;2023-06-26T02:09:37;21.10;96.40
14409;DHT22;7289;50.706;4.992;2023-06-26T02:12:06;21.00;96.30
14409;DHT22;7289;50.706;4.992;2023-06-26T02:14:36;20.90;96.40
14409;DHT22;7289;50.706;4.992;2023-06-26T02:17:04;20.80;96.50
14409;DHT22;7289;50.706;4.992;2023-06-26T02:19:35;20.80;96.60
14409;DHT22;7289;50.706;4.992;2023-06-26T02:22:04;20.70;96.60
14409;DHT22;7289;50.706;4.992;2023-06-26T02:24:32;20.60;96.80
14409;DHT22;7289;50.706;4.992;2023-06-26T02:27:01;20.60;96.80
14409;DHT22;7289;50.706;4.992;2023-06-26T02:29:29;20.60;96.80
14409;DHT22;7289;50.706;4.992;2023-06-26T02:31:59;20.50;96.90
14409;DHT22;7289;50.706;4.992;2023-06-26T02:34:27;20.50;97.00
14409;DHT22;7289;50.706;4.992;2023-06-26T02:36:55;20.50;96.90
14409;DHT22;7289;50.706;4.992;2023-06-26T02:39:25;20.50;97.00
14409;DHT22;7289;50.706;4.992;2023-06-26T02:41:54;20.50;96.90
14409;DHT22;7289;50.706;4.992;2023-06-26T02:44:23;20.40;97.00
14409;DHT22;7289;50.706;4.992;2023-06-26T02:46:52;20.40;97.20
14409;DHT22;7289;50.706;4.992;2023-06-26T02:49:22;20.40;97.20
14409;DHT22;7289;50.706;4.992;2023-06-26T02:51:50;20.40;97.30
14409;DHT22;7289;50.706;4.992;2023-06-26T02:54:24;20.30;97.40
14409;DHT22;7289;50.706;4.992;2023-06-26T02:56:55;20.30;97.40
14409;DHT22;7289;50.706;4.992;2023-06-26T02:59:28;20.30;97.70
14409;DHT22;7289;50.706;4.992;2023-06-26T03:01:57;20.10;97.80
14409;DHT22;7289;50.706;4.992;2023-06-26T03:04:32;20.10;97.90
14409;DHT22;7289;50.706;4.992;2023-06-26T03:07:05;20.10;98.10
14409;DHT22;7289;50.706;4.992;2023-06-26T03:09:33;20.10;98.30
14409;DHT22;7289;50.706;4.992;2023-06-26T03:12:02;20.10;98.30
14409;DHT22;7289;50.706;4.992;2023-06-26T03:14:33;20.00;98.20
14409;DHT22;7289;50.706;4.992;2023-06-26T03:17:01;20.00;98.50
14409;DHT22;7289;50.706;4.992;2023-06-26T03:19:34;20.00;98.60
14409;DHT22;7289;50.706;4.992;2023-06-26T03:22:20;19.90;98.60
14409;DHT22;7289;50.706;4.992;2023-06-26T03:24:49;19.80;98.90
14409;DHT22;7289;50.706;4.992;2023-06-26T03:27:17;19.90;98.90
14409;DHT22;7289;50.706;4.992;2023-06-26T03:29:47;19.80;99.00
14409;DHT22;7289;50.706;4.992;2023-06-26T03:32:18;19.80;99.20
14409;DHT22;7289;50.706;4.992;2023-06-26T03:34:52;19.70;99.40
14409;DHT22;7289;50.706;4.992;2023-06-26T03:37:21;19.70;99.40
14409;DHT22;7289;50.706;4.992;2023-06-26T03:39:50;19.70;99.50
14409;DHT22;7289;50.706;4.992;2023-06-26T03:42:18;19.70;99.60
14409;DHT22;7289;50.706;4.992;2023-06-26T03:44:46;19.70;99.70
14409;DHT22;7289;50.706;4.992;2023-06-26T03:47:17;19.70;99.80
14409;DHT22;7289;50.706;4.992;2023-06-26T03:49:45;19.70;99.90
14409;DHT22;7289;50.706;4.992;2023-06-26T03:52:16;19.70;99.90
14409;DHT22;7289;50.706;4.992;2023-06-26T03:54:45;19.70;99.90
14409;DHT22;7289;50.706;4.992;2023-06-26T03:57:16;19.70;99.90
14409;DHT22;7289;50.706;4.992;2023-06-26T03:59:46;19.60;99.90
14409;DHT22;7289;50.706;4.992;2023-06-26T04:02:15;19.70;99.90
14409;DHT22;7289;50.706;4.992;2023-06-26T04:04:43;19.70;99.90
14409;DHT22;7289;50.706;4.992;2023-06-26T04:07:12;19.60;99.90
14409;DHT22;7289;50.706;4.992;2023-06-26T04:09:42;19.70;99.90
14409;DHT22;7289;50.706;4.992;2023-06-26T04:12:10;19.80;99.90
14409;DHT22;7289;50.706;4.992;2023-06-26T04:14:38;19.70;99.90
14409;DHT22;7289;50.706;4.992;2023-06-26T04:17:07;19.70;99.90
14409;DHT22;7289;50.706;4.992;2023-06-26T04:19:35;19.70;99.90
14409;DHT22;7289;50.706;4.992;2023-06-26T04:22:03;19.70;99.90
14409;DHT22;7289;50.706;4.992;2023-06-26T04:24:32;19.60;99.90
14409;DHT22;7289;50.706;4.992;2023-06-26T04:27:02;19.60;99.90
14409;DHT22;7289;50.706;4.992;2023-06-26T04:29:30;19.60;99.90
14409;DHT22;7289;50.706;4.992;2023-06-26T04:31:58;19.60;99.90
14409;DHT22;7289;50.706;4.992;2023-06-26T04:34:27;19.60;99.90
14409;DHT22;7289;50.706;4.992;2023-06-26T04:36:59;19.60;99.90
14409;DHT22;7289;50.706;4.992;2023-06-26T04:39:30;19.60;99.90
14409;DHT22;7289;50.706;4.992;2023-06-26T04:42:00;19.60;99.90
14409;DHT22;7289;50.706;4.992;2023-06-26T04:44:28;19.50;99.90
14409;DHT22;7289;50.706;4.992;2023-06-26T04:46:56;19.50;99.90
14409;DHT22;7289;50.706;4.992;2023-06-26T04:49:25;19.60;99.90
14409;DHT22;7289;50.706;4.992;2023-06-26T04:51:54;19.50;99.90
14409;DHT22;7289;50.706;4.992;2023-06-26T04:54:23;19.50;99.90
14409;DHT22;7289;50.706;4.992;2023-06-26T04:56:51;19.50;99.90
14409;DHT22;7289;50.706;4.992;2023-06-26T04:59:21;19.50;99.90
14409;DHT22;7289;50.706;4.992;2023-06-26T05:01:49;19.60;99.90
14409;DHT22;7289;50.706;4.992;2023-06-26T05:04:17;19.60;99.90
14409;DHT22;7289;50.706;4.992;2023-06-26T05:06:45;19.70;99.90
14409;DHT22;7289;50.706;4.992;2023-06-26T05:09:14;19.70;99.90
14409;DHT22;7289;50.706;4.992;2023-06-26T05:11:42;19.80;99.90
14409;DHT22;7289;50.706;4.992;2023-06-26T05:14:10;19.80;99.90
14409;DHT22;7289;50.706;4.992;2023-06-26T05:16:41;19.80;99.90
14409;DHT22;7289;50.706;4.992;2023-06-26T05:19:10;19.90;99.90
14409;DHT22;7289;50.706;4.992;2023-06-26T05:21:38;19.90;99.90
14409;DHT22;7289;50.706;4.992;2023-06-26T05:24:08;20.00;99.90
14409;DHT22;7289;50.706;4.992;2023-06-26T05:26:37;20.00;99.90
14409;DHT22;7289;50.706;4.992;2023-06-26T05:29:06;20.00;99.90
14409;DHT22;7289;50.706;4.992;2023-06-26T05:31:41;20.00;99.90
14409;DHT22;7289;50.706;4.992;2023-06-26T05:34:10;20.00;99.90
14409;DHT22;7289;50.706;4.992;2023-06-26T05:36:41;20.10;99.90
14409;DHT22;7289;50.706;4.992;2023-06-26T05:39:11;20.20;99.90
14409;DHT22;7289;50.706;4.992;2023-06-26T05:41:40;20.20;99.90
14409;DHT22;7289;50.706;4.992;2023-06-26T05:44:08;20.20;99.70
14409;DHT22;7289;50.706;4.992;2023-06-26T05:46:36;20.20;99.90
14409;DHT22;7289;50.706;4.992;2023-06-26T05:49:06;20.20;99.60
14409;DHT22;7289;50.706;4.992;2023-06-26T05:51:35;20.20;99.90
14409;DHT22;7289;50.706;4.992;2023-06-26T05:54:04;20.10;99.90
14409;DHT22;7289;50.706;4.992;2023-06-26T05:56:32;20.20;99.60
14409;DHT22;7289;50.706;4.992;2023-06-26T05:59:01;20.20;99.90
14409;DHT22;7289;50.706;4.992;2023-06-26T06:01:30;20.20;99.60
14409;DHT22;7289;50.706;4.992;2023-06-26T06:04:00;20.20;99.80
14409;DHT22;7289;50.706;4.992;2023-06-26T06:06:30;20.30;99.70
14409;DHT22;7289;50.706;4.992;2023-06-26T06:08:58;20.40;99.50
14409;DHT22;7289;50.706;4.992;2023-06-26T06:11:26;20.50;99.50
14409;DHT22;7289;50.706;4.992;2023-06-26T06:13:55;20.50;98.80
14409;DHT22;7289;50.706;4.992;2023-06-26T06:16:23;20.50;98.00
14409;DHT22;7289;50.706;4.992;2023-06-26T06:18:51;20.70;98.50
14409;DHT22;7289;50.706;4.992;2023-06-26T06:21:20;20.70;98.20
14409;DHT22;7289;50.706;4.992;2023-06-26T06:23:49;20.60;98.20
14409;DHT22;7289;50.706;4.992;2023-06-26T06:26:18;20.50;98.00
14409;DHT22;7289;50.706;4.992;2023-06-26T06:28:46;20.60;98.10
14409;DHT22;7289;50.706;4.992;2023-06-26T06:31:14;20.70;98.50
14409;DHT22;7289;50.706;4.992;2023-06-26T06:33:43;20.80;97.90
14409;DHT22;7289;50.706;4.992;2023-06-26T06:36:11;20.80;97.20
14409;DHT22;7289;50.706;4.992;2023-06-26T06:38:42;21.00;97.90
14409;DHT22;7289;50.706;4.992;2023-06-26T06:41:14;21.20;97.30
14409;DHT22;7289;50.706;4.992;2023-06-26T06:43:43;21.30;96.80
14409;DHT22;7289;50.706;4.992;2023-06-26T06:46:12;21.40;96.30
14409;DHT22;7289;50.706;4.992;2023-06-26T06:48:40;21.10;95.90
14409;DHT22;7289;50.706;4.992;2023-06-26T06:51:08;21.10;96.80
14409;DHT22;7289;50.706;4.992;2023-06-26T06:53:37;21.20;96.90
14409;DHT22;7289;50.706;4.992;2023-06-26T06:56:05;21.30;96.00
14409;DHT22;7289;50.706;4.992;2023-06-26T06:58:35;21.40;95.70
14409;DHT22;7289;50.706;4.992;2023-06-26T07:01:03;21.50;95.70
14409;DHT22;7289;50.706;4.992;2023-06-26T07:03:31;21.50;95.90
14409;DHT22;7289;50.706;4.992;2023-06-26T07:06:00;21.40;95.40
14409;DHT22;7289;50.706;4.992;2023-06-26T07:08:28;21.50;96.00
14409;DHT22;7289;50.706;4.992;2023-06-26T07:10:57;21.40;95.70
14409;DHT22;7289;50.706;4.992;2023-06-26T07:13:25;21.50;96.10
14409;DHT22;7289;50.706;4.992;2023-06-26T07:15:55;21.60;96.30
14409;DHT22;7289;50.706;4.992;2023-06-26T07:18:23;21.60;95.40
14409;DHT22;7289;50.706;4.992;2023-06-26T07:20:52;21.50;95.30
14409;DHT22;7289;50.706;4.992;2023-06-26T07:23:20;21.30;96.30
14409;DHT22;7289;50.706;4.992;2023-06-26T07:25:48;21.40;95.70
14409;DHT22;7289;50.706;4.992;2023-06-26T07:28:17;21.60;95.00
14409;DHT22;7289;50.706;4.992;2023-06-26T07:30:45;21.60;95.00
14409;DHT22;7289;50.706;4.992;2023-06-26T07:33:15;21.70;94.70
14409;DHT22;7289;50.706;4.992;2023-06-26T07:35:43;21.90;94.80
14409;DHT22;7289;50.706;4.992;2023-06-26T07:38:11;22.00;95.00
14409;DHT22;7289;50.706;4.992;2023-06-26T07:40:40;22.00;95.20
14409;DHT22;7289;50.706;4.992;2023-06-26T07:43:08;22.10;95.40
14409;DHT22;7289;50.706;4.992;2023-06-26T07:45:36;22.20;94.30
14409;DHT22;7289;50.706;4.992;2023-06-26T07:48:06;22.30;94.50
14409;DHT22;7289;50.706;4.992;2023-06-26T07:50:36;22.50;93.70
14409;DHT22;7289;50.706;4.992;2023-06-26T07:53:04;22.40;92.80
14409;DHT22;7289;50.706;4.992;2023-06-26T07:55:33;22.50;93.50
14409;DHT22;7289;50.706;4.992;2023-06-26T07:58:01;22.50;93.00
14409;DHT22;7289;50.706;4.992;2023-06-26T08:00:30;22.50;93.90
14409;DHT22;7289;50.706;4.992;2023-06-26T08:02:58;22.50;93.60
14409;DHT22;7289;50.706;4.992;2023-06-26T08:05:26;22.20;93.40
14409;DHT22;7289;50.706;4.992;2023-06-26T08:07:56;22.20;94.40
14409;DHT22;7289;50.706;4.992;2023-06-26T08:10:25;22.10;93.60
14409;DHT22;7289;50.706;4.992;2023-06-26T08:12:53;22.10;94.10
14409;DHT22;7289;50.706;4.992;2023-06-26T08:15:22;22.10;93.90
14409;DHT22;7289;50.706;4.992;2023-06-26T08:17:50;22.10;93.50
14409;DHT22;7289;50.706;4.992;2023-06-26T08:20:19;22.30;94.10
14409;DHT22;7289;50.706;4.992;2023-06-26T08:22:47;22.40;93.00
14409;DHT22;7289;50.706;4.992;2023-06-26T08:25:19;22.50;93.70
14409;DHT22;7289;50.706;4.992;2023-06-26T08:27:47;22.70;93.10
14409;DHT22;7289;50.706;4.992;2023-06-26T08:30:16;22.80;93.10
14409;DHT22;7289;50.706;4.992;2023-06-26T08:32:44;22.80;92.10
14409;DHT22;7289;50.706;4.992;2023-06-26T08:35:13;22.70;92.60
14409;DHT22;7289;50.706;4.992;2023-06-26T08:37:42;22.60;93.30
14409;DHT22;7289;50.706;4.992;2023-06-26T08:40:11;22.60;92.80
14409;DHT22;7289;50.706;4.992;2023-06-26T08:42:41;22.70;93.60
14409;DHT22;7289;50.706;4.992;2023-06-26T08:45:10;22.70;93.50
14409;DHT22;7289;50.706;4.992;2023-06-26T08:47:40;22.80;92.30
14409;DHT22;7289;50.706;4.992;2023-06-26T08:50:13;22.80;91.80
14409;DHT22;7289;50.706;4.992;2023-06-26T08:52:45;22.80;92.50
14409;DHT22;7289;50.706;4.992;2023-06-26T08:55:20;22.90;91.70
14409;DHT22;7289;50.706;4.992;2023-06-26T08:57:52;22.80;91.50
14409;DHT22;7289;50.706;4.992;2023-06-26T09:00:21;22.80;91.10
14409;DHT22;7289;50.706;4.992;2023-06-26T09:02:50;22.80;91.40
14409;DHT22;7289;50.706;4.992;2023-06-26T09:05:19;23.00;92.30
14409;DHT22;7289;50.706;4.992;2023-06-26T09:07:47;23.20;90.00
14409;DHT22;7289;50.706;4.992;2023-06-26T09:10:15;23.50;90.50
14409;DHT22;7289;50.706;4.992;2023-06-26T09:12:46;23.80;90.60
14409;DHT22;7289;50.706;4.992;2023-06-26T09:15:19;23.90;88.60
14409;DHT22;7289;50.706;4.992;2023-06-26T09:17:48;24.00;88.40
14409;DHT22;7289;50.706;4.992;2023-06-26T09:20:16;24.00;87.90
14409;DHT22;7289;50.706;4.992;2023-06-26T09:22:47;24.00;87.70
14409;DHT22;7289;50.706;4.992;2023-06-26T09:25:16;24.00;88.90
14409;DHT22;7289;50.706;4.992;2023-06-26T09:27:45;24.00;85.00
14409;DHT22;7289;50.706;4.992;2023-06-26T09:30:18;24.10;86.30
14409;DHT22;7289;50.706;4.992;2023-06-26T09:32:47;24.10;87.60
14409;DHT22;7289;50.706;4.992;2023-06-26T09:35:17;23.90;86.40
14409;DHT22;7289;50.706;4.992;2023-06-26T09:37:46;23.80;85.80
14409;DHT22;7289;50.706;4.992;2023-06-26T09:40:15;23.90;87.40
14409;DHT22;7289;50.706;4.992;2023-06-26T09:42:43;23.90;85.30
14409;DHT22;7289;50.706;4.992;2023-06-26T09:45:19;23.80;86.40
14409;DHT22;7289;50.706;4.992;2023-06-26T09:47:48;24.00;87.70
14409;DHT22;7289;50.706;4.992;2023-06-26T09:50:22;24.20;86.70
14409;DHT22;7289;50.706;4.992;2023-06-26T09:52:53;24.10;83.40
14409;DHT22;7289;50.706;4.992;2023-06-26T09:55:22;24.00;83.90
14409;DHT22;7289;50.706;4.992;2023-06-26T09:57:50;24.00;85.00
14409;DHT22;7289;50.706;4.992;2023-06-26T10:00:21;23.90;85.00
14409;DHT22;7289;50.706;4.992;2023-06-26T10:02:49;23.90;82.30
14409;DHT22;7289;50.706;4.992;2023-06-26T10:05:18;23.90;83.70
14409;DHT22;7289;50.706;4.992;2023-06-26T10:07:46;24.10;82.80
14409;DHT22;7289;50.706;4.992;2023-06-26T10:10:16;24.10;83.80
14409;DHT22;7289;50.706;4.992;2023-06-26T10:12:48;23.90;83.40
14409;DHT22;7289;50.706;4.992;2023-06-26T10:15:17;24.00;83.00
14409;DHT22;7289;50.706;4.992;2023-06-26T10:17:49;24.10;84.70
14409;DHT22;7289;50.706;4.992;2023-06-26T10:20:18;24.20;82.90
14409;DHT22;7289;50.706;4.992;2023-06-26T10:22:47;24.00;80.40
14409;DHT22;7289;50.706;4.992;2023-06-26T10:25:18;23.80;80.90
14409;DHT22;7289;50.706;4.992;2023-06-26T10:27:50;23.90;79.00
14409;DHT22;7289;50.706;4.992;2023-06-26T10:30:21;23.50;81.60
14409;DHT22;7289;50.706;4.992;2023-06-26T10:32:51;23.80;81.90
14409;DHT22;7289;50.706;4.992;2023-06-26T10:35:20;24.10;80.40
14409;DHT22;7289;50.706;4.992;2023-06-26T10:37:50;24.40;78.80
14409;DHT22;7289;50.706;4.992;2023-06-26T10:40:22;24.40;80.20
14409;DHT22;7289;50.706;4.992;2023-06-26T10:43:06;24.50;79.90
14409;DHT22;7289;50.706;4.992;2023-06-26T10:45:35;24.70;81.00
14409;DHT22;7289;50.706;4.992;2023-06-26T10:48:05;24.60;81.10
14409;DHT22;7289;50.706;4.992;2023-06-26T10:50:34;24.70;77.40
14409;DHT22;7289;50.706;4.992;2023-06-26T10:53:09;24.60;76.70
14409;DHT22;7289;50.706;4.992;2023-06-26T10:55:41;24.30;77.50
14409;DHT22;7289;50.706;4.992;2023-06-26T10:58:27;24.10;78.00
14409;DHT22;7289;50.706;4.992;2023-06-26T11:01:19;24.00;79.20
14409;DHT22;7289;50.706;4.992;2023-06-26T11:04:04;24.00;79.70
14409;DHT22;7289;50.706;4.992;2023-06-26T11:06:34;24.00;82.30
14409;DHT22;7289;50.706;4.992;2023-06-26T11:09:10;24.30;80.10
14409;DHT22;7289;50.706;4.992;2023-06-26T11:11:59;24.40;79.20
14409;DHT22;7289;50.706;4.992;2023-06-26T11:14:32;24.90;79.90
14409;DHT22;7289;50.706;4.992;2023-06-26T11:17:04;25.10;76.00
14409;DHT22;7289;50.706;4.992;2023-06-26T11:19:34;25.30;76.60
14409;DHT22;7289;50.706;4.992;2023-06-26T11:22:03;25.30;74.80
14409;DHT22;7289;50.706;4.992;2023-06-26T11:24:33;25.50;76.20
14409;DHT22;7289;50.706;4.992;2023-06-26T11:27:03;25.50;74.60
14409;DHT22;7289;50.706;4.992;2023-06-26T11:29:32;25.60;77.40
14409;DHT22;7289;50.706;4.992;2023-06-26T11:32:03;25.70;73.40
14409;DHT22;7289;50.706;4.992;2023-06-26T11:34:35;25.70;74.50
14409;DHT22;7289;50.706;4.992;2023-06-26T11:37:05;25.90;75.40
14409;DHT22;7289;50.706;4.992;2023-06-26T11:39:35;25.70;75.20
14409;DHT22;7289;50.706;4.992;2023-06-26T11:42:05;25.80;74.50
14409;DHT22;7289;50.706;4.992;2023-06-26T11:44:40;25.80;74.10
14409;DHT22;7289;50.706;4.992;2023-06-26T11:47:12;25.80;73.80
14409;DHT22;7289;50.706;4.992;2023-06-26T11:49:43;25.50;73.40
14409;DHT22;7289;50.706;4.992;2023-06-26T11:52:12;25.60;75.40
14409;DHT22;7289;50.706;4.992;2023-06-26T11:54:42;25.40;75.10
14409;DHT22;7289;50.706;4.992;2023-06-26T11:57:14;25.10;74.00
14409;DHT22;7289;50.706;4.992;2023-06-26T11:59:42;25.00;72.50
14409;DHT22;7289;50.706;4.992;2023-06-26T12:02:13;24.90;71.90
14409;DHT22;7289;50.706;4.992;2023-06-26T12:04:44;24.70;73.30
14409;DHT22;7289;50.706;4.992;2023-06-26T12:07:13;24.70;73.30
14409;DHT22;7289;50.706;4.992;2023-06-26T12:09:45;24.60;71.30
14409;DHT22;7289;50.706;4.992;2023-06-26T12:12:15;24.70;73.00
14409;DHT22;7289;50.706;4.992;2023-06-26T12:14:44;24.70;73.50
14409;DHT22;7289;50.706;4.992;2023-06-26T12:17:13;24.90;76.30
14409;DHT22;7289;50.706;4.992;2023-06-26T12:19:45;25.20;68.20
14409;DHT22;7289;50.706;4.992;2023-06-26T12:22:16;25.40;68.80
14409;DHT22;7289;50.706;4.992;2023-06-26T12:24:47;25.30;70.60
14409;DHT22;7289;50.706;4.992;2023-06-26T12:27:21;25.30;69.40
14409;DHT22;7289;50.706;4.992;2023-06-26T12:29:52;25.30;69.80
14409;DHT22;7289;50.706;4.992;2023-06-26T12:32:23;25.40;72.30
14409;DHT22;7289;50.706;4.992;2023-06-26T12:34:56;25.60;71.20
14409;DHT22;7289;50.706;4.992;2023-06-26T12:37:25;25.70;68.90
14409;DHT22;7289;50.706;4.992;2023-06-26T12:39:55;25.60;68.50
14409;DHT22;7289;50.706;4.992;2023-06-26T12:42:24;25.50;71.10
14409;DHT22;7289;50.706;4.992;2023-06-26T12:44:54;25.70;72.10
14409;DHT22;7289;50.706;4.992;2023-06-26T12:47:25;26.00;72.80
14409;DHT22;7289;50.706;4.992;2023-06-26T12:49:56;26.20;70.10
14409;DHT22;7289;50.706;4.992;2023-06-26T12:52:24;26.30;67.90
14409;DHT22;7289;50.706;4.992;2023-06-26T12:54:54;26.40;68.00
14409;DHT22;7289;50.706;4.992;2023-06-26T12:57:23;26.50;68.50
14409;DHT22;7289;50.706;4.992;2023-06-26T12:59:52;26.60;68.30
14409;DHT22;7289;50.706;4.992;2023-06-26T13:02:21;26.60;69.20
14409;DHT22;7289;50.706;4.992;2023-06-26T13:04:49;26.50;68.60
14409;DHT22;7289;50.706;4.992;2023-06-26T13:07:19;26.50;68.40
14409;DHT22;7289;50.706;4.992;2023-06-26T13:09:48;26.50;72.10
14409;DHT22;7289;50.706;4.992;2023-06-26T13:12:16;26.60;70.80
14409;DHT22;7289;50.706;4.992;2023-06-26T13:14:44;26.60;69.40
14409;DHT22;7289;50.706;4.992;2023-06-26T13:17:12;26.60;68.80
14409;DHT22;7289;50.706;4.992;2023-06-26T13:19:41;26.70;66.20
14409;DHT22;7289;50.706;4.992;2023-06-26T13:22:10;26.50;66.20
14409;DHT22;7289;50.706;4.992;2023-06-26T13:24:40;26.20;70.00
14409;DHT22;7289;50.706;4.992;2023-06-26T13:27:09;26.10;70.80
14409;DHT22;7289;50.706;4.992;2023-06-26T13:29:37;26.10;71.10
14409;DHT22;7289;50.706;4.992;2023-06-26T13:32:06;25.90;70.60
14409;DHT22;7289;50.706;4.992;2023-06-26T13:34:34;25.80;68.90
14409;DHT22;7289;50.706;4.992;2023-06-26T13:37:03;25.40;66.90
14409;DHT22;7289;50.706;4.992;2023-06-26T13:39:33;25.40;69.70
14409;DHT22;7289;50.706;4.992;2023-06-26T13:42:03;25.70;70.50
14409;DHT22;7289;50.706;4.992;2023-06-26T13:44:32;26.00;68.50
14409;DHT22;7289;50.706;4.992;2023-06-26T13:47:21;26.20;70.70
14409;DHT22;7289;50.706;4.992;2023-06-26T13:49:49;26.30;69.50
14409;DHT22;7289;50.706;4.992;2023-06-26T13:52:17;26.60;71.00
14409;DHT22;7289;50.706;4.992;2023-06-26T13:54:46;26.80;67.80
14409;DHT22;7289;50.706;4.992;2023-06-26T13:57:15;27.00;70.80
14409;DHT22;7289;50.706;4.992;2023-06-26T13:59:44;27.00;66.80
14409;DHT22;7289;50.706;4.992;2023-06-26T14:02:14;26.90;65.50
14409;DHT22;7289;50.706;4.992;2023-06-26T14:04:43;26.70;67.70
14409;DHT22;7289;50.706;4.992;2023-06-26T14:07:11;26.50;70.00
14409;DHT22;7289;50.706;4.992;2023-06-26T14:09:40;26.20;68.80
14409;DHT22;7289;50.706;4.992;2023-06-26T14:12:09;25.90;70.90
14409;DHT22;7289;50.706;4.992;2023-06-26T14:14:38;25.90;70.10
14409;DHT22;7289;50.706;4.992;2023-06-26T14:17:07;25.80;69.20
14409;DHT22;7289;50.706;4.992;2023-06-26T14:19:36;25.70;68.80
14409;DHT22;7289;50.706;4.992;2023-06-26T14:22:04;25.70;71.30
14409;DHT22;7289;50.706;4.992;2023-06-26T14:24:33;25.80;69.90
14409;DHT22;7289;50.706;4.992;2023-06-26T14:27:01;25.60;70.70
14409;DHT22;7289;50.706;4.992;2023-06-26T14:29:30;25.70;72.80
14409;DHT22;7289;50.706;4.992;2023-06-26T14:31:59;25.80;70.40
14409;DHT22;7289;50.706;4.992;2023-06-26T14:34:28;25.90;72.10
14409;DHT22;7289;50.706;4.992;2023-06-26T14:36:56;26.20;70.60
14409;DHT22;7289;50.706;4.992;2023-06-26T14:39:25;26.10;70.80
14409;DHT22;7289;50.706;4.992;2023-06-26T14:41:53;26.20;70.70
14409;DHT22;7289;50.706;4.992;2023-06-26T14:44:22;26.30;71.30
14409;DHT22;7289;50.706;4.992;2023-06-26T14:46:51;26.50;70.90
14409;DHT22;7289;50.706;4.992;2023-06-26T14:49:21;26.50;69.10
14409;DHT22;7289;50.706;4.992;2023-06-26T14:51:49;26.50;70.10
14409;DHT22;7289;50.706;4.992;2023-06-26T14:54:17;26.50;68.20
14409;DHT22;7289;50.706;4.992;2023-06-26T14:56:46;26.40;68.00
14409;DHT22;7289;50.706;4.992;2023-06-26T14:59:14;26.60;70.00
14409;DHT22;7289;50.706;4.992;2023-06-26T15:01:42;26.90;69.90
14409;DHT22;7289;50.706;4.992;2023-06-26T15:04:10;27.10;69.40
14409;DHT22;7289;50.706;4.992;2023-06-26T15:06:40;26.50;68.10
14409;DHT22;7289;50.706;4.992;2023-06-26T15:09:09;26.20;68.50
14409;DHT22;7289;50.706;4.992;2023-06-26T15:11:37;26.20;70.50
14409;DHT22;7289;50.706;4.992;2023-06-26T15:14:05;26.40;70.40
14409;DHT22;7289;50.706;4.992;2023-06-26T15:16:34;26.30;69.50
14409;DHT22;7289;50.706;4.992;2023-06-26T15:19:02;26.20;72.10
14409;DHT22;7289;50.706;4.992;2023-06-26T15:21:30;26.40;71.90
14409;DHT22;7289;50.706;4.992;2023-06-26T15:24:00;26.50;71.40
14409;DHT22;7289;50.706;4.992;2023-06-26T15:26:28;26.40;69.10
14409;DHT22;7289;50.706;4.992;2023-06-26T15:28:57;26.50;68.90
14409;DHT22;7289;50.706;4.992;2023-06-26T15:31:28;26.50;70.30
14409;DHT22;7289;50.706;4.992;2023-06-26T15:33:57;26.60;69.80
14409;DHT22;7289;50.706;4.992;2023-06-26T15:36:26;26.50;66.20
14409;DHT22;7289;50.706;4.992;2023-06-26T15:38:54;26.60;66.90
14409;DHT22;7289;50.706;4.992;2023-06-26T15:41:24;26.70;67.40
14409;DHT22;7289;50.706;4.992;2023-06-26T15:43:52;26.50;67.30
14409;DHT22;7289;50.706;4.992;2023-06-26T15:46:20;26.60;69.30
14409;DHT22;7289;50.706;4.992;2023-06-26T15:48:49;26.50;68.40
14409;DHT22;7289;50.706;4.992;2023-06-26T15:51:17;26.30;67.50
14409;DHT22;7289;50.706;4.992;2023-06-26T15:53:45;26.40;66.60
14409;DHT22;7289;50.706;4.992;2023-06-26T15:56:14;26.20;65.70
14409;DHT22;7289;50.706;4.992;2023-06-26T15:58:45;26.20;69.40
14409;DHT22;7289;50.706;4.992;2023-06-26T16:01:15;26.20;68.60